Time;durP1;ratioP1;P1;durP2;ratioP2;P2;SDS_P1;SDS_P2;PMS_P1;PMS_P2;Temp;Humidity;BMP_temperature;BMP_pressure;BME280_temperature;BME280_humidity;BME280_pressure;Samples;Min_cycle;Max_cycle;Signal;HPM_P1;HPM_P2
2023/07/11 00:02:23;;;;;;;4.25;2.10;;;;;;;25.33;46.83;101599.75;4934606;28;20110;-78
2023/07/11 00:04:48;;;;;;;4.40;1.90;;;;;;;25.31;46.81;101602.59;4934732;29;20042;-78
2023/07/11 00:07:14;;;;;;;4.95;1.80;;;;;;;25.32;46.72;101595.41;4924185;29;20032;-78
2023/07/11 00:09:39;;;;;;;5.07;1.90;;;;;;;25.32;46.72;101592.75;4924392;29;20031;-77
2023/07/11 00:12:05;;;;;;;4.40;1.80;;;;;;;25.30;46.71;101586.72;4936270;29;20265;-77
2023/07/11 00:14:30;;;;;;;3.85;1.77;;;;;;;25.31;46.58;101580.38;4942018;28;20039;-77
2023/07/11 00:16:55;;;;;;;7.45;2.10;;;;;;;25.31;46.67;101588.38;4935723;29;20064;-77
2023/07/11 00:19:21;;;;;;;4.07;1.90;;;;;;;25.30;46.60;101578.72;4923988;29;20514;-78
2023/07/11 00:21:46;;;;;;;5.72;1.88;;;;;;;25.29;46.96;101577.03;4928342;29;20038;-78
2023/07/11 00:24:12;;;;;;;4.05;2.00;;;;;;;25.28;46.65;101578.88;4930010;28;20042;-77
2023/07/11 00:26:37;;;;;;;3.85;1.80;;;;;;;25.29;46.41;101579.72;4931290;29;20622;-77
2023/07/11 00:29:19;;;;;;;4.68;1.70;;;;;;;25.27;46.61;101574.50;4929385;29;20067;-76
2023/07/11 00:31:45;;;;;;;4.47;1.92;;;;;;;25.28;46.70;101576.22;4929355;29;20062;-78
2023/07/11 00:34:10;;;;;;;4.63;1.92;;;;;;;25.25;46.64;101571.16;4933667;29;20031;-78
2023/07/11 00:36:36;;;;;;;4.45;1.98;;;;;;;25.28;46.60;101575.38;4930009;29;20043;-79
2023/07/11 00:39:02;;;;;;;4.57;2.00;;;;;;;25.26;46.46;101563.97;4937846;29;20038;-78
2023/07/11 00:41:28;;;;;;;5.22;2.00;;;;;;;25.27;46.70;101573.66;4930814;29;20036;-77
2023/07/11 00:43:53;;;;;;;4.45;2.42;;;;;;;25.24;46.57;101566.81;4924227;29;20042;-78
2023/07/11 00:46:19;;;;;;;4.45;1.90;;;;;;;25.26;46.43;101569.31;4924032;29;20443;-78
2023/07/11 00:48:49;;;;;;;3.45;1.50;;;;;;;25.24;46.70;101566.81;4935452;29;20570;-78
2023/07/11 00:51:21;;;;;;;5.00;1.77;;;;;;;25.23;46.64;101567.81;4930320;29;20050;-77
2023/07/11 00:53:47;;;;;;;6.68;2.05;;;;;;;25.25;46.37;101562.31;4934479;28;20043;-78
2023/07/11 00:56:19;;;;;;;5.68;2.13;;;;;;;25.23;46.59;101564.28;4932688;28;20485;-77
2023/07/11 00:58:46;;;;;;;4.75;1.95;;;;;;;25.19;46.68;101566.44;4934444;29;20042;-78
2023/07/11 01:01:13;;;;;;;5.35;2.35;;;;;;;25.23;46.64;101572.28;4933486;29;20043;-76
2023/07/11 01:03:39;;;;;;;6.35;2.08;;;;;;;25.23;46.47;101570.47;4935820;29;20043;-77
2023/07/11 01:06:13;;;;;;;6.40;2.50;;;;;;;25.21;46.91;101571.63;4930845;29;20550;-78
2023/07/11 01:08:39;;;;;;;6.43;2.00;;;;;;;25.22;46.26;101571.47;4908601;29;20187;-77
2023/07/11 01:11:05;;;;;;;7.25;2.20;;;;;;;25.21;46.74;101575.09;4933980;29;20039;-77
2023/07/11 01:13:30;;;;;;;7.55;2.53;;;;;;;25.20;46.78;101565.44;4932098;29;20134;-77
2023/07/11 01:15:55;;;;;;;4.40;1.90;;;;;;;25.21;46.53;101575.09;4932434;29;20543;-77
2023/07/11 01:18:21;;;;;;;5.88;2.10;;;;;;;25.21;46.63;101577.78;4936979;29;20086;-77
2023/07/11 01:20:46;;;;;;;4.28;2.03;;;;;;;25.20;46.83;101567.25;4931418;29;20032;-77
2023/07/11 01:23:11;;;;;;;4.68;2.13;;;;;;;25.21;46.84;101568.94;4932457;29;20035;-77
2023/07/11 01:25:38;;;;;;;4.93;2.33;;;;;;;25.19;46.45;101569.09;4937123;29;20054;-78
2023/07/11 01:28:04;;;;;;;7.38;2.10;;;;;;;25.17;46.56;101563.09;4931911;29;20063;-77
2023/07/11 01:30:29;;;;;;;5.60;2.22;;;;;;;25.18;46.42;101562.06;4929666;29;20035;-77
2023/07/11 01:32:54;;;;;;;4.43;1.95;;;;;;;25.17;46.49;101555.91;4932724;29;20035;-77
2023/07/11 01:35:20;;;;;;;6.32;2.10;;;;;;;25.16;46.24;101551.56;4930856;28;20126;-78
2023/07/11 01:37:45;;;;;;;5.53;2.10;;;;;;;25.16;46.53;101554.22;4929263;29;20116;-77
2023/07/11 01:40:11;;;;;;;5.00;2.10;;;;;;;25.16;46.57;101550.75;4939789;29;20035;-78
2023/07/11 01:42:37;;;;;;;6.82;2.00;;;;;;;25.16;46.52;101542.75;4934477;29;20038;-78
2023/07/11 01:45:03;;;;;;;5.40;2.20;;;;;;;25.16;46.43;101540.06;4928885;29;20027;-78
2023/07/11 01:47:28;;;;;;;5.25;2.00;;;;;;;25.16;46.48;101540.06;4932618;29;20051;-78
2023/07/11 01:49:53;;;;;;;4.40;2.00;;;;;;;25.15;46.32;101538.38;4937147;29;20495;-78
2023/07/11 01:52:23;;;;;;;5.55;2.25;;;;;;;25.14;46.56;101536.72;4934020;29;20050;-78
2023/07/11 01:54:50;;;;;;;6.13;2.13;;;;;;;25.14;46.30;101534.88;4934510;29;20120;-78
2023/07/11 01:57:16;;;;;;;5.40;2.15;;;;;;;25.14;46.50;101526.06;4934385;29;20049;-78
2023/07/11 01:59:42;;;;;;;4.82;2.03;;;;;;;25.13;46.26;101525.22;4934655;29;20115;-77
2023/07/11 02:02:08;;;;;;;4.00;2.00;;;;;;;25.12;46.69;101520.88;4931239;28;20123;-78
2023/07/11 02:04:34;;;;;;;6.13;2.33;;;;;;;25.13;46.59;101519.03;4933617;29;20063;-78
2023/07/11 02:07:00;;;;;;;5.55;2.33;;;;;;;25.12;46.32;101518.22;4940380;29;20428;-78
2023/07/11 02:09:26;;;;;;;5.05;2.50;;;;;;;25.12;46.45;101517.38;4930601;28;20142;-78
2023/07/11 02:11:51;;;;;;;5.32;2.28;;;;;;;25.11;46.26;101511.19;4933164;29;20035;-78
2023/07/11 02:14:19;;;;;;;4.18;2.10;;;;;;;25.11;46.46;101502.38;4929771;28;20041;-78
2023/07/11 02:16:45;;;;;;;6.38;2.05;;;;;;;25.10;46.33;101508.69;4934150;29;20035;-78
2023/07/11 02:19:12;;;;;;;6.28;2.30;;;;;;;25.10;46.32;101498.00;4932248;29;20094;-78
2023/07/11 02:21:38;;;;;;;6.18;2.45;;;;;;;25.08;46.25;101494.69;4932107;29;20093;-77
2023/07/11 02:24:06;;;;;;;3.58;2.00;;;;;;;25.09;46.45;101494.53;4929141;28;20032;-77
2023/07/11 02:26:31;;;;;;;5.20;2.75;;;;;;;25.09;46.45;101488.34;4933843;28;20178;-78
2023/07/11 02:28:56;;;;;;;4.82;2.10;;;;;;;25.07;46.29;101485.84;4936276;29;20110;-77
2023/07/11 02:31:21;;;;;;;5.75;2.20;;;;;;;25.09;46.38;101486.53;4932599;29;20172;-77
2023/07/11 02:33:48;;;;;;;6.50;2.45;;;;;;;25.08;46.56;101484.00;4934052;29;20040;-77
2023/07/11 02:36:13;;;;;;;5.20;1.92;;;;;;;25.08;46.47;101484.00;4930366;29;20035;-77
2023/07/11 02:38:38;;;;;;;5.07;2.33;;;;;;;25.07;46.69;101472.50;4927220;29;20035;-77
2023/07/11 02:41:04;;;;;;;5.67;2.33;;;;;;;25.07;46.30;101472.50;4930113;29;20496;-78
2023/07/11 02:43:29;;;;;;;4.65;2.25;;;;;;;25.07;46.31;101474.31;4930052;29;20296;-76
2023/07/11 02:45:55;;;;;;;3.50;1.98;;;;;;;25.06;46.48;101462.84;4934248;29;20039;-77
2023/07/11 02:48:21;;;;;;;4.68;2.05;;;;;;;25.06;46.47;101468.16;4926537;29;20451;-77
2023/07/11 02:50:46;;;;;;;5.10;2.20;;;;;;;25.05;46.26;101461.16;4940096;29;20488;-78
2023/07/11 02:53:11;;;;;;;5.57;2.30;;;;;;;25.06;46.55;101454.84;4938700;29;20039;-78
2023/07/11 02:55:39;;;;;;;6.32;2.28;;;;;;;25.03;46.48;101455.13;4936982;29;20038;-78
2023/07/11 02:58:05;;;;;;;4.97;2.45;;;;;;;25.05;46.24;101457.66;4935932;29;20035;-78
2023/07/11 03:00:30;;;;;;;5.50;2.30;;;;;;;25.05;46.30;101442.47;4924643;29;20094;-78
2023/07/11 03:02:56;;;;;;;5.03;2.33;;;;;;;25.04;46.57;101446.16;4924901;29;20082;-78
2023/07/11 03:05:21;;;;;;;4.53;2.40;;;;;;;25.03;46.50;101440.97;4931094;29;20095;-77
2023/07/11 03:07:47;;;;;;;4.82;2.00;;;;;;;25.04;46.30;101445.31;4934499;29;20091;-78
2023/07/11 03:10:12;;;;;;;5.32;2.25;;;;;;;25.04;46.51;101439.97;4931450;29;20043;-75
2023/07/11 03:12:38;;;;;;;5.20;2.85;;;;;;;25.02;46.58;101431.28;4938398;29;20496;-78
2023/07/11 03:15:04;;;;;;;6.30;2.58;;;;;;;25.03;46.40;101432.97;4931998;28;20032;-78
2023/07/11 03:17:29;;;;;;;5.72;2.35;;;;;;;25.02;46.38;101426.78;4930032;29;20035;-78
2023/07/11 03:19:54;;;;;;;4.07;2.20;;;;;;;25.02;46.56;101423.31;4933911;29;20401;-78
2023/07/11 03:22:19;;;;;;;5.32;2.90;;;;;;;25.02;46.45;101428.63;4936330;29;20401;-78
2023/07/11 03:24:45;;;;;;;5.25;2.38;;;;;;;25.01;46.39;101424.28;4943602;29;20031;-78
2023/07/11 03:27:10;;;;;;;5.68;2.63;;;;;;;25.00;46.41;101420.78;4940032;29;20047;-78
2023/07/11 03:29:35;;;;;;;5.65;2.47;;;;;;;25.01;46.38;101416.28;4943446;29;20031;-78
2023/07/11 03:32:01;;;;;;;5.00;2.40;;;;;;;25.00;46.75;101415.47;4940744;29;20031;-78
2023/07/11 03:34:26;;;;;;;5.00;2.33;;;;;;;25.01;46.43;101413.63;4943153;29;20269;-78
2023/07/11 03:36:51;;;;;;;4.55;2.33;;;;;;;25.01;46.46;101410.94;4941305;28;20043;-78
2023/07/11 03:39:17;;;;;;;5.37;2.50;;;;;;;25.00;46.32;101412.78;4935831;29;20031;-77
2023/07/11 03:41:42;;;;;;;5.53;2.50;;;;;;;24.99;46.48;101411.97;4937385;29;20355;-78
2023/07/11 03:44:09;;;;;;;7.70;3.03;;;;;;;24.98;46.53;101412.94;4934898;29;20293;-78
2023/07/11 03:46:34;;;;;;;4.72;2.40;;;;;;;24.98;46.36;101409.44;4925614;29;20055;-78
2023/07/11 03:49:00;;;;;;;5.45;2.40;;;;;;;24.97;46.36;101405.94;4931765;29;20511;-77
2023/07/11 03:51:26;;;;;;;5.43;2.53;;;;;;;24.98;46.45;101412.94;4935030;28;20031;-78
2023/07/11 03:53:51;;;;;;;4.70;2.45;;;;;;;24.97;46.39;101408.59;4925236;29;20413;-77
2023/07/11 03:56:16;;;;;;;4.28;2.10;;;;;;;24.96;46.45;101406.13;4931721;29;20031;-78
2023/07/11 03:58:42;;;;;;;6.45;2.75;;;;;;;24.98;46.17;101404.13;4926631;29;20038;-78
2023/07/11 04:01:07;;;;;;;4.40;2.37;;;;;;;24.97;46.33;101399.78;4937857;28;20515;-78
2023/07/11 04:03:32;;;;;;;4.93;2.50;;;;;;;24.97;46.25;101403.25;4928468;29;20322;-78
2023/07/11 04:05:57;;;;;;;5.03;2.38;;;;;;;24.97;46.73;101397.09;4937726;29;20399;-78
2023/07/11 04:08:23;;;;;;;4.85;2.42;;;;;;;24.93;46.57;101391.25;4935418;29;20480;-78
2023/07/11 04:10:48;;;;;;;5.05;2.40;;;;;;;24.95;46.35;101399.09;4934727;29;20098;-78
2023/07/11 04:13:13;;;;;;;4.10;2.40;;;;;;;24.96;46.50;101393.59;4932078;29;20039;-79
2023/07/11 04:15:39;;;;;;;5.15;2.38;;;;;;;24.94;46.18;101389.41;4934936;29;20472;-78
2023/07/11 04:18:04;;;;;;;4.30;2.40;;;;;;;24.95;46.18;101383.09;4935028;29;20070;-79
2023/07/11 04:20:29;;;;;;;4.65;2.53;;;;;;;24.94;46.41;101387.59;4933139;29;20464;-78
2023/07/11 04:22:55;;;;;;;5.30;2.60;;;;;;;24.92;46.35;101378.91;4932390;29;20587;-78
2023/07/11 04:25:20;;;;;;;4.15;2.38;;;;;;;24.95;46.33;101383.94;4939849;29;20267;-78
2023/07/11 04:27:45;;;;;;;5.43;2.42;;;;;;;24.93;46.37;101372.59;4954328;28;20039;-78
2023/07/11 04:30:11;;;;;;;4.05;2.17;;;;;;;24.94;46.26;101370.75;4934445;29;20156;-78
2023/07/11 04:32:37;;;;;;;5.38;2.35;;;;;;;24.94;46.62;101371.63;4935099;29;20036;-78
2023/07/11 04:35:02;;;;;;;5.88;2.13;;;;;;;24.91;46.27;101366.59;4930112;29;20489;-79
2023/07/11 04:37:28;;;;;;;4.95;2.30;;;;;;;24.92;46.60;101370.91;4932692;29;20094;-78
2023/07/11 04:39:54;;;;;;;5.13;2.60;;;;;;;24.92;46.52;101365.56;4925274;29;20035;-79
2023/07/11 04:42:19;;;;;;;4.15;2.10;;;;;;;24.92;46.76;101362.09;4942438;28;20066;-78
2023/07/11 04:44:45;;;;;;;4.13;2.15;;;;;;;24.92;46.39;101370.91;4931633;28;20047;-78
2023/07/11 04:47:10;;;;;;;5.15;2.20;;;;;;;24.91;46.63;101366.59;4923140;29;20051;-78
2023/07/11 04:49:36;;;;;;;5.43;2.58;;;;;;;24.91;46.56;101366.59;4939519;29;20090;-79
2023/07/11 04:52:01;;;;;;;4.57;2.33;;;;;;;24.92;46.56;101356.75;4940278;29;20464;-77
2023/07/11 04:54:27;;;;;;;3.78;2.15;;;;;;;24.92;46.56;101365.56;4937216;29;20098;-78
2023/07/11 04:56:58;;;;;;;4.93;2.25;;;;;;;24.91;46.46;101361.25;4937477;28;20043;-77
2023/07/11 04:59:24;;;;;;;5.65;2.35;;;;;;;24.91;46.58;101350.59;4930346;28;20053;-78
2023/07/11 05:01:50;;;;;;;5.82;2.00;;;;;;;24.92;46.59;101354.09;4936112;28;20098;-77
2023/07/11 05:04:15;;;;;;;4.65;2.40;;;;;;;24.91;46.61;101347.94;4934071;29;20035;-78
2023/07/11 05:06:41;;;;;;;5.28;2.38;;;;;;;24.90;46.40;101354.25;4927807;29;20058;-78
2023/07/11 05:09:07;;;;;;;4.35;2.38;;;;;;;24.89;46.20;101347.22;4935047;29;20074;-78
2023/07/11 05:11:32;;;;;;;4.82;2.45;;;;;;;24.91;46.40;101347.06;4934442;28;20079;-78
2023/07/11 05:13:57;;;;;;;5.15;2.20;;;;;;;24.91;46.53;101339.94;4933943;29;20047;-78
2023/07/11 05:16:28;;;;;;;3.53;1.80;;;;;;;24.91;46.59;101337.28;4932679;29;20084;-78
2023/07/11 05:18:55;;;;;;;4.43;1.98;;;;;;;24.90;46.45;101340.91;4930222;29;20039;-79
2023/07/11 05:21:21;;;;;;;5.45;2.03;;;;;;;24.88;46.52;101340.25;4927187;28;20048;-78
2023/07/11 05:23:47;;;;;;;5.00;2.28;;;;;;;24.90;46.49;101335.59;4935546;29;20039;-78
2023/07/11 05:26:13;;;;;;;4.45;2.28;;;;;;;24.90;46.49;101340.91;4939580;28;20046;-78
2023/07/11 05:28:39;;;;;;;5.68;2.05;;;;;;;24.89;46.28;101336.56;4938027;28;20038;-78
2023/07/11 05:31:05;;;;;;;4.32;2.00;;;;;;;24.90;46.40;101327.59;4931319;29;20035;-76
2023/07/11 05:33:31;;;;;;;4.63;2.20;;;;;;;24.90;46.37;101330.25;4932670;29;20039;-77
2023/07/11 05:36:31;;;;;;;3.75;1.90;;;;;;;24.90;46.45;101326.75;4924926;28;20044;-78
2023/07/11 05:39:03;;;;;;;4.78;2.10;;;;;;;24.92;46.41;101325.59;4934231;29;20035;-78
2023/07/11 05:41:29;;;;;;;5.30;2.30;;;;;;;24.91;46.53;101321.28;4931506;28;20107;-78
2023/07/11 05:43:55;;;;;;;4.68;2.20;;;;;;;24.91;46.48;101323.94;4934776;28;20039;-78
2023/07/11 05:46:21;;;;;;;6.43;2.40;;;;;;;24.91;46.77;101318.59;4931946;29;20062;-78
2023/07/11 05:48:48;;;;;;;4.63;2.20;;;;;;;24.91;46.46;101315.94;4933671;29;20035;-79
2023/07/11 05:51:16;;;;;;;4.53;2.08;;;;;;;24.91;46.55;101323.09;4929160;29;20488;-78
2023/07/11 05:53:42;;;;;;;4.97;2.17;;;;;;;24.91;46.50;101318.59;4936505;29;20482;-78
2023/07/11 05:56:07;;;;;;;5.13;1.90;;;;;;;24.92;46.60;101322.94;4929691;28;20767;-79
2023/07/11 05:58:34;;;;;;;5.18;2.10;;;;;;;24.92;46.75;101311.44;4930042;29;20030;-79
2023/07/11 06:01:00;;;;;;;4.00;2.00;;;;;;;24.91;46.36;101307.94;4938484;28;20063;-78
2023/07/11 06:03:29;;;;;;;3.78;2.00;;;;;;;24.90;46.50;101300.94;4937819;28;20036;-79
2023/07/11 06:06:03;;;;;;;4.85;1.98;;;;;;;24.90;46.75;101303.59;4931762;29;20023;-79
2023/07/11 06:08:30;;;;;;;4.57;2.22;;;;;;;24.91;46.87;101299.94;4931105;29;20051;-79
2023/07/11 06:10:57;;;;;;;4.07;1.92;;;;;;;24.91;46.75;101299.09;4935483;28;20044;-79
2023/07/11 06:13:23;;;;;;;4.53;2.00;;;;;;;24.91;46.88;101294.63;4937332;29;20075;-79
2023/07/11 06:15:48;;;;;;;4.93;2.03;;;;;;;24.92;46.75;101298.94;4930056;29;20031;-79
2023/07/11 06:18:13;;;;;;;4.93;2.37;;;;;;;24.92;46.81;101293.59;4929917;29;20103;-76
2023/07/11 06:20:39;;;;;;;4.10;2.03;;;;;;;24.96;46.54;101294.13;4933432;28;21067;-73
2023/07/11 06:23:04;;;;;;;6.80;2.35;;;;;;;24.99;45.78;101297.31;4936220;29;20290;-74
2023/07/11 06:25:29;;;;;;;5.95;2.38;;;;;;;25.03;45.44;101295.16;4937758;29;20102;-74
2023/07/11 06:27:55;;;;;;;6.38;2.58;;;;;;;25.01;45.34;101299.81;4931535;29;20043;-78
2023/07/11 06:30:20;;;;;;;8.35;2.50;;;;;;;24.96;45.71;101289.63;4934549;29;20114;-73
2023/07/11 06:32:46;;;;;;;7.55;2.30;;;;;;;24.92;45.74;101287.44;4931883;28;20302;-75
2023/07/11 06:35:11;;;;;;;6.05;2.22;;;;;;;24.85;45.94;101297.06;4934758;29;20044;-77
2023/07/11 06:37:37;;;;;;;6.33;2.33;;;;;;;24.78;46.26;101295.03;4926863;29;20039;-81
2023/07/11 06:40:06;;;;;;;5.47;2.00;;;;;;;24.73;45.90;101292.00;4926045;28;20759;-82
2023/07/11 06:42:32;;;;;;;5.82;2.30;;;;;;;24.71;45.83;101288.66;4936914;29;20551;-74
2023/07/11 06:44:57;;;;;;;7.82;2.30;;;;;;;24.72;46.34;101287.69;4943298;29;20035;-76
2023/07/11 06:47:22;;;;;;;6.43;2.17;;;;;;;24.73;46.22;101286.66;4927780;29;20055;-78
2023/07/11 06:49:48;;;;;;;7.97;1.90;;;;;;;24.75;46.22;101287.38;4925986;29;20476;-78
2023/07/11 06:52:13;;;;;;;8.02;2.45;;;;;;;24.75;46.03;101291.84;4925156;29;20035;-78
2023/07/11 06:54:38;;;;;;;5.50;2.03;;;;;;;24.79;45.57;101290.53;4910704;29;20109;-75
2023/07/11 06:57:04;;;;;;;8.27;3.10;;;;;;;24.82;45.68;101287.56;4922892;29;20031;-77
2023/07/11 06:59:29;;;;;;;5.75;2.15;;;;;;;24.81;45.46;101284.03;4924078;28;20037;-77
2023/07/11 07:01:54;;;;;;;5.33;2.10;;;;;;;24.84;45.66;101282.06;4924363;29;20125;-72
2023/07/11 07:04:20;;;;;;;5.13;2.22;;;;;;;24.84;45.53;101282.91;4939478;28;20278;-73
2023/07/11 07:06:45;;;;;;;6.03;2.17;;;;;;;24.84;45.15;101282.06;4921371;29;20106;-73
2023/07/11 07:09:11;;;;;;;7.47;2.20;;;;;;;24.84;45.06;101288.22;4924284;29;20050;-73
2023/07/11 07:11:38;;;;;;;8.40;2.08;;;;;;;24.85;45.50;101275.72;4920666;29;20070;-74
2023/07/11 07:14:10;;;;;;;7.32;2.00;;;;;;;24.88;45.18;101278.06;4924596;29;20066;-79
2023/07/11 07:16:37;;;;;;;5.95;2.00;;;;;;;24.94;45.03;101286.31;4921917;29;20039;-76
2023/07/11 07:19:04;;;;;;;5.32;1.90;;;;;;;24.90;45.10;101276.94;4932339;28;20484;-75
2023/07/11 07:21:30;;;;;;;4.22;1.80;;;;;;;24.86;45.61;101286.22;4932336;29;20039;-75
2023/07/11 07:23:56;;;;;;;5.63;1.90;;;;;;;24.85;46.08;101281.91;4942940;28;20031;-77
2023/07/11 07:26:21;;;;;;;6.18;1.90;;;;;;;24.84;46.22;101274.06;4936657;28;20031;-77
2023/07/11 07:28:46;;;;;;;4.75;2.00;;;;;;;24.86;46.42;101269.41;4936641;29;20110;-76
2023/07/11 07:31:12;;;;;;;4.07;1.70;;;;;;;24.89;46.34;101275.25;4930611;29;20102;-77
2023/07/11 07:33:37;;;;;;;4.30;1.90;;;;;;;24.90;46.26;101279.59;4940892;29;20047;-75
2023/07/11 07:36:05;;;;;;;4.78;1.70;;;;;;;24.90;46.43;101273.44;4933888;29;20174;-76
2023/07/11 07:38:31;;;;;;;4.30;1.80;;;;;;;24.91;46.37;101265.28;4926961;29;20066;-77
2023/07/11 07:41:01;;;;;;;4.85;1.75;;;;;;;24.91;46.53;101262.63;4932609;28;20102;-77
2023/07/11 07:43:27;;;;;;;5.45;2.08;;;;;;;24.92;46.56;101261.59;4925106;29;20040;-75
2023/07/11 07:45:55;;;;;;;5.32;1.90;;;;;;;24.90;46.59;101263.59;4935719;29;20035;-74
2023/07/11 07:48:22;;;;;;;5.97;2.40;;;;;;;24.90;46.81;101258.28;4932182;29;20055;-70
2023/07/11 07:50:48;;;;;;;4.63;1.67;;;;;;;24.96;46.73;101252.31;4934947;29;20066;-73
2023/07/11 07:53:14;;;;;;;6.18;1.92;;;;;;;25.00;46.78;101250.16;4936088;29;20114;-75
2023/07/11 07:55:40;;;;;;;8.20;1.88;;;;;;;25.02;46.77;101247.31;4937811;28;20035;-72
2023/07/11 07:58:06;;;;;;;4.63;1.50;;;;;;;25.05;46.68;101250.50;4932333;28;20099;-74
2023/07/11 08:00:31;;;;;;;5.05;1.70;;;;;;;25.05;46.28;101237.16;4935817;29;20082;-71
2023/07/11 08:02:56;;;;;;;4.68;1.80;;;;;;;25.05;46.83;101247.00;4932543;29;20035;-72
2023/07/11 08:05:22;;;;;;;4.28;1.52;;;;;;;25.06;46.33;101246.84;4932781;28;20086;-73
2023/07/11 08:07:48;;;;;;;4.55;1.58;;;;;;;25.05;46.66;101247.00;4932701;29;20508;-76
2023/07/11 08:10:15;;;;;;;4.60;1.70;;;;;;;25.03;46.69;101241.84;4933849;29;20050;-75
2023/07/11 08:12:40;;;;;;;5.13;1.90;;;;;;;25.02;46.53;101234.00;4929097;29;20032;-80
2023/07/11 08:15:06;;;;;;;4.88;1.63;;;;;;;25.15;46.33;101243.22;4903904;29;20035;-78
2023/07/11 08:17:32;;;;;;;3.83;1.70;;;;;;;25.22;46.58;101229.25;4894970;29;20031;-77
2023/07/11 08:19:57;;;;;;;5.22;1.95;;;;;;;25.26;45.80;101235.91;4925656;29;20059;-79
2023/07/11 08:22:22;;;;;;;5.15;1.60;;;;;;;25.29;46.05;101236.47;4906441;28;20051;-79
2023/07/11 08:24:48;;;;;;;4.88;1.58;;;;;;;25.31;45.91;101231.78;4922342;29;20451;-80
2023/07/11 08:27:13;;;;;;;4.68;1.75;;;;;;;25.31;46.14;101226.47;4922038;29;20127;-81
2023/07/11 08:29:43;;;;;;;7.35;1.90;;;;;;;25.33;46.01;101228.97;4923152;29;21124;-78
2023/07/11 08:32:09;;;;;;;5.25;1.70;;;;;;;25.37;45.87;101232.13;4924094;28;20358;-81
2023/07/11 08:34:34;;;;;;;4.53;1.70;;;;;;;25.38;45.87;101229.28;4919344;29;20562;-82
2023/07/11 08:36:59;;;;;;;3.88;1.60;;;;;;;25.40;46.17;101219.28;4922967;29;20117;-80
2023/07/11 08:39:25;;;;;;;5.03;1.50;;;;;;;25.41;46.21;101234.31;4919599;29;20069;-81
2023/07/11 08:41:53;;;;;;;3.72;1.45;;;;;;;25.42;45.96;101221.78;4921579;29;20071;-80
2023/07/11 08:44:32;;;;;;;5.72;1.80;;;;;;;25.43;46.15;101224.28;4923125;28;20078;-78
2023/07/11 08:47:06;;;;;;;4.30;1.38;;;;;;;25.43;46.28;101221.63;4921159;28;20063;-79
2023/07/11 08:49:51;;;;;;;4.95;1.90;;;;;;;25.46;46.03;101217.81;4924017;29;20123;-79
2023/07/11 08:52:18;;;;;;;3.60;1.48;;;;;;;25.49;45.95;101217.47;4926346;29;20046;-79
2023/07/11 08:55:13;;;;;;;4.32;1.40;;;;;;;25.49;46.21;101214.81;4923400;29;20051;-79
2023/07/11 08:57:45;;;;;;;8.30;1.60;;;;;;;25.52;46.08;101211.81;4920928;28;20754;-81
2023/07/11 09:00:15;;;;;;;4.82;1.70;;;;;;;25.52;45.92;101209.97;4916533;29;20050;-80
2023/07/11 09:02:55;;;;;;;3.83;1.40;;;;;;;25.52;45.98;101199.31;4916384;28;20047;-78
2023/07/11 09:05:35;;;;;;;3.75;1.50;;;;;;;25.53;45.99;101202.78;4925183;29;20031;-78
2023/07/11 09:08:01;;;;;;;4.35;1.58;;;;;;;25.57;46.04;101197.97;4922778;29;20798;-79
2023/07/11 09:10:44;;;;;;;5.85;1.60;;;;;;;25.56;46.14;101201.63;4067354;28;10000389;-78
2023/07/11 09:13:27;;;;;;;4.50;1.60;;;;;;;25.54;46.05;101207.13;4924425;28;20039;-79
2023/07/11 09:16:16;;;;;;;4.38;1.40;;;;;;;25.56;46.15;101199.78;4913181;28;20278;-79
2023/07/11 09:19:11;;;;;;;3.65;1.60;;;;;;;25.58;46.21;101202.31;4916657;29;20031;-78
2023/07/11 09:21:45;;;;;;;3.83;1.58;;;;;;;25.61;46.44;101210.84;4922254;28;20854;-75
2023/07/11 09:24:30;;;;;;;;;;;;;;;25.68;46.37;101203.81;4905658;29;20043;-73
2023/07/11 09:27:01;;;;;;;3.45;1.55;;;;;;;25.70;46.08;101199.13;4916046;29;19919;-75
2023/07/11 09:29:27;;;;;;;3.92;1.70;;;;;;;25.70;45.84;101195.66;4914385;29;20094;-75
2023/07/11 09:31:57;;;;;;;4.07;1.60;;;;;;;25.66;45.98;101194.28;4055716;28;10000638;-74
2023/07/11 09:34:30;;;;;;;4.93;1.77;;;;;;;25.67;46.29;101198.66;4926911;29;20114;-75
2023/07/11 09:36:57;;;;;;;5.03;1.25;;;;;;;25.68;46.45;101201.16;4927222;28;20035;-75
2023/07/11 09:39:33;;;;;;;4.55;1.60;;;;;;;25.66;46.49;101191.63;4923897;28;20042;-77
2023/07/11 09:42:40;;;;;;;8.13;1.63;;;;;;;25.54;46.74;101191.13;4929530;29;20112;-76
2023/07/11 09:45:17;;;;;;;7.05;1.60;;;;;;;25.57;46.94;101188.13;4916524;29;20118;-75
2023/07/11 09:47:50;;;;;;;3.72;1.60;;;;;;;25.64;46.96;101194.50;4918733;29;20495;-75
2023/07/11 09:50:38;;;;;;;9.43;1.70;;;;;;;25.68;46.88;101195.00;4916879;28;20493;-74
2023/07/11 09:53:10;;;;;;;4.57;1.48;;;;;;;25.69;47.27;101188.63;4916975;28;20048;-76
2023/07/11 09:55:36;;;;;;;5.30;1.70;;;;;;;25.73;46.83;101176.63;4920490;29;20031;-76
2023/07/11 09:58:02;;;;;;;3.88;1.50;;;;;;;25.73;47.15;101181.13;4906447;28;20057;-74
2023/07/11 10:00:29;;;;;;;5.28;1.80;;;;;;;25.74;47.17;101180.97;4920905;29;20035;-75
2023/07/11 10:02:58;;;;;;;4.40;1.40;;;;;;;25.74;46.94;101178.31;4918957;29;20043;-75
2023/07/11 10:05:24;;;;;;;6.57;2.05;;;;;;;25.75;46.57;101179.97;4920211;29;20043;-74
2023/07/11 10:08:01;;;;;;;4.97;1.70;;;;;;;25.75;46.42;101179.97;4925782;29;20043;-76
2023/07/11 10:10:26;;;;;;;4.72;1.60;;;;;;;25.77;46.79;101175.31;4920832;29;20035;-76
2023/07/11 10:12:52;;;;;;;4.07;1.58;;;;;;;25.79;46.72;101169.81;4919024;29;20476;-75
2023/07/11 10:15:18;;;;;;;4.80;1.40;;;;;;;25.79;46.47;101170.63;4916377;29;20960;-75
2023/07/11 10:17:45;;;;;;;3.97;1.55;;;;;;;25.77;46.62;101167.28;4916931;28;20105;-74
2023/07/11 10:20:20;;;;;;;4.25;1.60;;;;;;;25.78;47.17;101171.63;4921780;29;20035;-74
2023/07/11 10:23:02;;;;;;;5.57;1.70;;;;;;;25.79;46.97;101162.63;4920303;28;20123;-73
2023/07/11 10:25:28;;;;;;;3.50;1.60;;;;;;;25.82;46.82;101154.28;4920002;29;20039;-73
2023/07/11 10:28:04;;;;;;;4.65;2.20;;;;;;;25.82;46.61;101164.94;4918090;28;20038;-77
2023/07/11 10:30:33;;;;;;;4.32;1.60;;;;;;;25.83;46.61;101157.75;4928700;29;20241;-84
2023/07/11 10:33:05;;;;;;;7.35;1.90;;;;;;;25.83;46.63;101155.09;4919945;29;20023;-80
2023/07/11 10:35:31;;;;;;;3.45;1.45;;;;;;;25.83;46.67;101150.56;4917640;29;20042;-79
2023/07/11 10:38:18;;;;;;;5.65;1.42;;;;;;;25.82;46.95;101142.75;4923013;29;20830;-75
2023/07/11 10:40:47;;;;;;;6.03;1.85;;;;;;;25.84;46.75;101138.91;4924198;29;20043;-73
2023/07/11 10:43:27;;;;;;;3.72;1.40;;;;;;;25.85;46.48;101142.41;4926402;29;20100;-72
2023/07/11 10:46:17;;;;;;;6.22;1.77;;;;;;;25.85;46.63;101143.25;4924543;29;20127;-76
2023/07/11 10:48:49;;;;;;;5.38;1.48;;;;;;;25.86;46.68;101131.56;4920399;29;20054;-75
2023/07/11 10:51:21;;;;;;;7.38;1.88;;;;;;;25.88;46.79;101139.41;4920546;28;20046;-74
2023/07/11 10:54:12;;;;;;;6.40;1.85;;;;;;;25.88;46.93;101131.38;4924113;29;20187;-74
2023/07/11 10:56:42;;;;;;;6.20;1.98;;;;;;;25.89;46.73;101131.22;4910117;29;20865;-75
2023/07/11 10:59:23;;;;;;;4.35;1.77;;;;;;;25.88;46.40;101136.72;4908753;28;20633;-77
2023/07/11 11:01:54;;;;;;;3.75;1.65;;;;;;;25.89;46.64;101133.06;4923318;28;20094;-75
2023/07/11 11:04:53;;;;;;;3.97;1.60;;;;;;;25.89;46.87;101133.06;4914612;29;20042;-75
2023/07/11 11:07:24;;;;;;;4.70;1.60;;;;;;;25.90;46.65;101124.06;4911865;29;20073;-73
2023/07/11 11:10:10;;;;;;;4.72;1.70;;;;;;;25.91;46.40;101128.38;4924070;29;20039;-75
2023/07/11 11:12:47;;;;;;;5.15;1.60;;;;;;;25.92;46.75;101123.91;4921642;29;20164;-75
2023/07/11 11:15:12;;;;;;;3.90;1.90;;;;;;;25.95;46.61;101118.22;4927824;29;20418;-76
2023/07/11 11:18:04;;;;;;;4.28;1.40;;;;;;;25.91;46.76;101112.38;4917582;29;20477;-76
2023/07/11 11:20:39;;;;;;;4.90;1.67;;;;;;;25.94;46.33;101114.69;4923776;29;20055;-72
2023/07/11 11:23:22;;;;;;;6.03;1.85;;;;;;;25.92;46.50;101107.88;4929062;29;20129;-73
2023/07/11 11:26:18;;;;;;;5.03;1.70;;;;;;;25.86;46.93;101099.53;4917649;29;20466;-71
2023/07/11 11:28:58;;;;;;;5.72;1.73;;;;;;;25.94;47.01;101098.69;4924963;29;20039;-73
2023/07/11 11:31:27;;;;;;;4.90;1.65;;;;;;;25.94;46.74;101090.66;4920996;29;20135;-73